createdAt,value
2018-02-13T00:02:16.637Z,67.70
2018-02-13T00:04:44.177Z,68.00
2018-02-13T00:07:11.901Z,68.00
2018-02-13T00:09:40.160Z,67.80
2018-02-13T00:12:07.745Z,67.80
2018-02-13T00:14:36.044Z,68.10
2018-02-13T00:17:04.336Z,68.00
2018-02-13T00:19:31.949Z,67.90
2018-02-13T00:21:59.441Z,68.00
2018-02-13T00:24:27.070Z,68.10
2018-02-13T00:26:54.560Z,67.90
2018-02-13T00:29:22.112Z,67.90
2018-02-13T00:31:49.613Z,67.70
2018-02-13T00:34:17.247Z,68.00
2018-02-13T00:36:45.610Z,68.10
2018-02-13T00:39:13.328Z,68.00
2018-02-13T00:41:41.012Z,67.50
2018-02-13T00:44:08.758Z,68.20
2018-02-13T00:46:37.048Z,68.40
2018-02-13T00:49:05.322Z,68.30
2018-02-13T00:51:33.623Z,68.50
2018-02-13T00:54:01.233Z,68.40
2018-02-13T00:56:28.759Z,68.40
2018-02-13T00:58:57.047Z,68.60
2018-02-13T01:01:25.333Z,68.40
2018-02-13T01:03:53.610Z,68.60
2018-02-13T01:06:22.725Z,68.80
2018-02-13T01:08:50.495Z,68.80
2018-02-13T01:11:18.051Z,68.70
2018-02-13T01:13:45.648Z,68.70
2018-02-13T01:16:13.953Z,68.70
2018-02-13T01:18:41.524Z,68.60
2018-02-13T01:23:44.730Z,68.90
2018-02-13T01:26:12.282Z,68.90
2018-02-13T01:28:40.607Z,68.80
2018-02-13T01:31:08.152Z,68.80
2018-02-13T01:33:35.674Z,68.70
2018-02-13T01:36:03.305Z,68.90
2018-02-13T01:38:30.821Z,69.10
2018-02-13T01:40:58.403Z,68.90
2018-02-13T01:43:25.918Z,69.10
2018-02-13T01:45:53.457Z,69.10
2018-02-13T01:48:21.114Z,69.20
2018-02-13T01:50:48.701Z,69.00
2018-02-13T01:53:16.252Z,69.10
2018-02-13T01:55:44.393Z,69.20
2018-02-13T01:58:11.895Z,69.20
2018-02-13T02:00:39.447Z,69.20
2018-02-13T02:03:07.718Z,69.20
2018-02-13T02:05:35.258Z,69.10
2018-02-13T02:08:02.733Z,69.00
2018-02-13T02:10:30.247Z,69.10
2018-02-13T02:12:58.541Z,69.10
2018-02-13T02:15:27.058Z,69.30
2018-02-13T02:17:54.610Z,69.30
2018-02-13T02:20:23.077Z,69.20
2018-02-13T02:22:50.700Z,69.20
2018-02-13T02:25:19.033Z,69.20
2018-02-13T02:27:46.529Z,69.20
2018-02-13T02:30:14.816Z,69.40
2018-02-13T02:32:43.107Z,69.40
2018-02-13T02:35:11.389Z,69.60
2018-02-13T02:37:39.703Z,69.80
2018-02-13T02:40:07.235Z,69.80
2018-02-13T02:42:46.570Z,69.80
2018-02-13T02:45:14.069Z,70.00
2018-02-13T02:47:42.348Z,70.20
2018-02-13T02:50:09.962Z,70.20
2018-02-13T02:52:37.489Z,71.10
2018-02-13T02:55:05.005Z,70.30
2018-02-13T02:57:32.686Z,70.30
2018-02-13T03:00:00.184Z,70.20
2018-02-13T03:02:27.795Z,70.40
2018-02-13T03:04:56.069Z,70.30
2018-02-13T03:07:23.553Z,70.30
2018-02-13T03:09:51.872Z,70.10
2018-02-13T03:12:19.425Z,70.00
2018-02-13T03:14:46.937Z,70.10
2018-02-13T03:17:14.449Z,70.10
2018-02-13T03:19:42.951Z,70.10
2018-02-13T03:22:11.330Z,70.00
2018-02-13T03:24:39.626Z,70.20
2018-02-13T03:27:07.939Z,70.30
2018-02-13T03:29:35.451Z,70.30
2018-02-13T03:32:02.992Z,70.30
2018-02-13T03:34:30.551Z,70.10
2018-02-13T03:36:58.045Z,70.10
2018-02-13T03:39:25.558Z,70.10
2018-02-13T03:41:53.108Z,70.40
2018-02-13T03:44:20.793Z,70.50
2018-02-13T03:46:48.582Z,70.60
2018-02-13T03:49:16.185Z,70.70
2018-02-13T03:51:43.706Z,71.40
2018-02-13T03:54:11.223Z,70.80
2018-02-13T03:56:38.757Z,70.90
2018-02-13T03:59:06.438Z,70.90
2018-02-13T04:01:34.007Z,70.80
2018-02-13T04:04:01.597Z,70.80
2018-02-13T04:06:29.915Z,70.80
2018-02-13T04:08:57.692Z,70.90
2018-02-13T04:11:25.315Z,70.90
2018-02-13T04:13:52.876Z,71.10
2018-02-13T04:16:20.421Z,71.20
2018-02-13T04:18:47.977Z,71.20
2018-02-13T04:21:15.527Z,71.30
2018-02-13T04:23:43.119Z,71.30
2018-02-13T04:26:10.797Z,71.10
2018-02-13T04:28:38.430Z,71.40
2018-02-13T04:31:06.758Z,71.50
2018-02-13T04:33:34.490Z,71.50
2018-02-13T04:36:02.013Z,71.30
2018-02-13T04:38:29.585Z,71.30
2018-02-13T04:40:57.340Z,71.40
2018-02-13T04:43:25.016Z,71.30
2018-02-13T04:45:52.555Z,71.30
2018-02-13T04:48:20.089Z,71.20
2018-02-13T04:50:47.651Z,71.20
2018-02-13T04:53:15.253Z,71.10
2018-02-13T04:55:42.853Z,71.00
2018-02-13T04:58:11.184Z,70.70
2018-02-13T05:00:38.707Z,70.70
2018-02-13T05:03:06.251Z,70.80
2018-02-13T05:05:33.782Z,70.90
2018-02-13T05:08:01.307Z,70.90
2018-02-13T05:10:28.874Z,70.80
2018-02-13T05:12:56.389Z,71.40
2018-02-13T05:15:23.993Z,70.60
2018-02-13T05:17:51.567Z,70.80
2018-02-13T05:20:19.210Z,70.80
2018-02-13T05:22:46.754Z,70.80
2018-02-13T05:25:15.052Z,70.80
2018-02-13T05:27:42.605Z,70.70
2018-02-13T05:30:10.886Z,70.80
2018-02-13T05:32:38.443Z,70.70
2018-02-13T05:35:05.966Z,70.70
2018-02-13T05:37:35.141Z,70.70
2018-02-13T05:40:02.657Z,70.60
2018-02-13T05:42:30.172Z,70.60
2018-02-13T05:44:57.710Z,70.50
2018-02-13T05:47:25.231Z,70.50
2018-02-13T05:49:52.833Z,70.70
2018-02-13T05:52:20.381Z,70.60
2018-02-13T05:54:49.496Z,70.60
2018-02-13T05:57:17.138Z,70.60
2018-02-13T05:59:44.859Z,70.60
2018-02-13T06:02:12.418Z,70.60
2018-02-13T06:04:41.031Z,70.50
2018-02-13T06:07:08.571Z,70.50
2018-02-13T06:09:36.849Z,70.70
2018-02-13T06:12:04.798Z,70.60
2018-02-13T06:14:32.442Z,70.80
2018-02-13T06:16:59.958Z,70.80
2018-02-13T06:19:27.998Z,70.90
2018-02-13T06:21:55.507Z,70.60
2018-02-13T06:24:23.060Z,70.50
2018-02-13T06:26:50.629Z,70.40
2018-02-13T06:29:18.278Z,70.10
2018-02-13T06:31:45.816Z,70.00
2018-02-13T06:34:13.455Z,70.00
2018-02-13T06:36:41.000Z,69.90
2018-02-13T06:39:08.522Z,70.00
2018-02-13T06:41:36.055Z,70.10
2018-02-13T06:44:03.570Z,70.00
2018-02-13T06:46:32.048Z,70.30
2018-02-13T06:48:59.558Z,70.20
2018-02-13T06:51:27.348Z,70.20
2018-02-13T06:53:55.207Z,70.10
2018-02-13T06:56:22.850Z,69.90
2018-02-13T06:58:50.397Z,69.80
2018-02-13T07:01:17.940Z,69.70
2018-02-13T07:03:45.524Z,69.60
2018-02-13T07:06:13.094Z,69.60
2018-02-13T07:08:40.655Z,69.70
2018-02-13T07:11:08.355Z,69.60
2018-02-13T07:13:35.939Z,69.70
2018-02-13T07:16:03.481Z,69.60
2018-02-13T07:18:31.029Z,69.70
2018-02-13T07:20:59.310Z,69.70
2018-02-13T07:23:27.912Z,69.70
2018-02-13T07:25:56.243Z,69.70
2018-02-13T07:28:23.824Z,70.30
2018-02-13T07:30:51.394Z,69.80
2018-02-13T07:33:18.930Z,69.80
2018-02-13T07:35:46.506Z,70.00
2018-02-13T07:38:14.255Z,69.90
2018-02-13T07:40:42.536Z,69.90
2018-02-13T07:43:10.832Z,69.90
2018-02-13T07:45:39.109Z,69.40
2018-02-13T07:48:06.727Z,69.40
2018-02-13T07:50:34.291Z,68.80
2018-02-13T07:53:01.827Z,69.00
2018-02-13T07:55:29.342Z,69.20
2018-02-13T07:57:56.899Z,69.00
2018-02-13T08:00:24.683Z,68.60
2018-02-13T08:02:52.198Z,68.60
2018-02-13T08:05:19.710Z,68.80
2018-02-13T08:07:47.258Z,68.70
2018-02-13T08:10:15.648Z,68.30
2018-02-13T08:12:43.168Z,68.30
2018-02-13T08:15:10.738Z,68.00
2018-02-13T08:17:38.267Z,67.90
2018-02-13T08:20:06.547Z,67.80
2018-02-13T08:22:34.085Z,67.70
2018-02-13T08:25:01.597Z,67.60
2018-02-13T08:27:29.891Z,67.00
2018-02-13T08:29:58.476Z,66.80
2018-02-13T08:32:26.108Z,66.80
2018-02-13T08:34:53.778Z,67.10
2018-02-13T08:37:21.294Z,66.80
2018-02-13T08:39:48.828Z,66.40
2018-02-13T08:42:16.718Z,66.40
2018-02-13T08:44:44.314Z,66.50
2018-02-13T08:47:11.838Z,66.50
2018-02-13T08:49:39.353Z,66.30
2018-02-13T08:52:07.731Z,66.90
2018-02-13T08:54:35.420Z,66.10
2018-02-13T08:57:03.761Z,65.50
2018-02-13T08:59:31.268Z,65.50
2018-02-13T09:01:58.811Z,64.80
2018-02-13T09:04:26.328Z,64.60
2018-02-13T09:06:54.640Z,65.00
2018-02-13T09:09:22.150Z,65.00
2018-02-13T09:11:49.686Z,64.60
2018-02-13T09:14:17.264Z,64.10
2018-02-13T09:16:44.794Z,64.00
2018-02-13T09:19:12.285Z,64.00
2018-02-13T09:21:40.556Z,63.90
2018-02-13T09:24:08.063Z,63.90
2018-02-13T09:26:35.556Z,63.90
2018-02-13T09:29:03.561Z,63.50
2018-02-13T09:31:31.116Z,62.80
2018-02-13T09:33:58.774Z,63.00
2018-02-13T09:36:26.341Z,63.10
2018-02-13T09:38:53.990Z,63.10
2018-02-13T09:41:22.292Z,62.10
2018-02-13T09:43:49.833Z,62.10
2018-02-13T09:46:18.139Z,61.10
2018-02-13T09:48:45.633Z,61.10
2018-02-13T09:51:13.171Z,60.80
2018-02-13T09:53:41.547Z,60.00
2018-02-13T09:56:10.059Z,60.00
2018-02-13T09:58:38.362Z,58.90
2018-02-13T10:01:06.118Z,58.90
2018-02-13T10:03:33.686Z,59.00
2018-02-13T10:06:01.999Z,56.60
2018-02-13T10:08:29.609Z,56.60
2018-02-13T10:10:57.155Z,55.40
2018-02-13T10:13:24.664Z,54.50
2018-02-13T10:15:52.254Z,53.90
2018-02-13T10:18:19.922Z,52.80
2018-02-13T10:20:48.230Z,50.80
2018-02-13T10:23:16.764Z,49.40
2018-02-13T10:25:44.278Z,49.40
2018-02-13T10:28:12.697Z,46.60
2018-02-13T10:30:40.246Z,46.50
2018-02-13T10:33:07.817Z,44.70
2018-02-13T10:35:35.325Z,44.30
2018-02-13T10:38:02.912Z,42.50
2018-02-13T10:40:30.434Z,42.20
2018-02-13T10:42:58.318Z,40.70
2018-02-13T10:45:25.834Z,40.00
2018-02-13T10:47:53.395Z,39.50
2018-02-13T10:50:20.925Z,39.40
2018-02-13T10:52:48.617Z,38.30
2018-02-13T10:55:16.996Z,37.50
2018-02-13T10:57:45.307Z,36.20
2018-02-13T11:00:12.822Z,36.20
2018-02-13T11:02:40.363Z,36.40
2018-02-13T11:05:07.947Z,36.70
2018-02-13T11:07:35.752Z,36.10
2018-02-13T11:10:03.303Z,35.90
2018-02-13T11:12:30.844Z,35.40
2018-02-13T11:14:58.367Z,34.80
2018-02-13T11:17:25.897Z,33.60
2018-02-13T11:19:53.418Z,33.50
2018-02-13T11:22:20.973Z,33.90
2018-02-13T11:24:48.634Z,33.30
2018-02-13T11:27:17.001Z,32.50
2018-02-13T11:29:44.534Z,32.50
2018-02-13T11:32:12.056Z,32.70
2018-02-13T11:34:39.826Z,33.30
2018-02-13T11:37:07.571Z,32.50
2018-02-13T11:39:35.123Z,33.00
2018-02-13T11:42:03.435Z,33.10
2018-02-13T11:44:31.708Z,32.10
2018-02-13T11:49:33.910Z,31.50
2018-02-13T11:52:02.940Z,30.70
2018-02-13T11:54:31.238Z,30.90
2018-02-13T11:56:58.771Z,30.90
2018-02-13T11:59:26.277Z,30.60
2018-02-13T12:01:53.788Z,30.90
2018-02-13T12:04:21.295Z,30.10
2018-02-13T12:06:49.620Z,30.30
2018-02-13T12:09:17.154Z,30.30
2018-02-13T12:11:44.693Z,31.70
2018-02-13T12:14:12.230Z,32.50
2018-02-13T12:16:39.730Z,32.80
2018-02-13T12:19:07.282Z,32.00
2018-02-13T12:21:34.796Z,32.20
2018-02-13T12:24:02.333Z,32.20
2018-02-13T12:26:29.912Z,32.50
2018-02-13T12:28:57.753Z,33.10
2018-02-13T12:31:25.431Z,34.10
2018-02-13T12:33:52.929Z,34.30
2018-02-13T12:36:20.481Z,34.50
2018-02-13T12:38:48.023Z,35.10
2018-02-13T12:41:16.356Z,35.60
2018-02-13T12:43:43.892Z,35.60
2018-02-13T12:46:12.284Z,36.00
2018-02-13T12:48:39.832Z,36.00
2018-02-13T12:51:07.452Z,36.80
2018-02-13T12:53:34.985Z,37.40
2018-02-13T12:56:03.277Z,38.10
2018-02-13T12:58:31.580Z,38.60
2018-02-13T13:00:59.159Z,38.60
2018-02-13T13:03:26.673Z,38.90
2018-02-13T13:05:54.174Z,38.70
2018-02-13T13:08:22.554Z,38.20
2018-02-13T13:10:50.179Z,38.10
2018-02-13T13:13:17.727Z,37.20
2018-02-13T13:15:45.614Z,36.80
2018-02-13T13:18:13.113Z,36.70
2018-02-13T13:20:40.654Z,36.50
2018-02-13T13:23:08.201Z,36.80
2018-02-13T13:25:35.788Z,36.80
2018-02-13T13:28:03.359Z,36.60
2018-02-13T13:30:30.917Z,37.10
2018-02-13T13:32:58.504Z,37.80
2018-02-13T13:35:26.156Z,37.60
2018-02-13T13:37:54.473Z,38.40
2018-02-13T13:40:22.031Z,37.70
2018-02-13T13:42:50.351Z,38.30
2018-02-13T13:45:18.670Z,37.80
2018-02-13T13:47:46.300Z,37.00
2018-02-13T13:50:13.845Z,36.50
2018-02-13T13:52:42.242Z,35.40
2018-02-13T13:55:10.559Z,34.80
2018-02-13T13:57:38.110Z,34.80
2018-02-13T14:00:07.126Z,34.20
2018-02-13T14:02:34.755Z,34.20
2018-02-13T14:05:02.295Z,34.10
2018-02-13T14:07:29.803Z,34.30
2018-02-13T14:09:57.945Z,34.40
2018-02-13T14:12:25.471Z,35.20
2018-02-13T14:14:53.773Z,35.30
2018-02-13T14:17:23.883Z,35.20
2018-02-13T14:19:51.490Z,35.30
2018-02-13T14:22:19.001Z,35.40
2018-02-13T14:24:47.336Z,34.70
2018-02-13T14:27:14.853Z,34.70
2018-02-13T14:29:42.362Z,34.30
2018-02-13T14:32:10.675Z,34.00
2018-02-13T14:34:38.197Z,34.00
2018-02-13T14:37:05.736Z,34.10
2018-02-13T14:39:33.312Z,33.80
2018-02-13T14:42:00.857Z,34.40
2018-02-13T14:44:29.348Z,34.30
2018-02-13T14:46:56.843Z,34.30
2018-02-13T14:49:24.495Z,34.20
2018-02-13T14:51:52.103Z,34.10
2018-02-13T14:54:19.631Z,34.20
2018-02-13T14:56:47.367Z,34.00
2018-02-13T14:59:15.088Z,33.80
2018-02-13T15:01:42.605Z,34.20
2018-02-13T15:04:10.272Z,34.60
2018-02-13T15:06:37.772Z,34.90
2018-02-13T15:09:05.287Z,34.50
2018-02-13T15:11:32.826Z,34.40
2018-02-13T15:14:00.526Z,33.70
2018-02-13T15:16:28.031Z,34.40
2018-02-13T15:18:55.569Z,34.70
2018-02-13T15:21:23.136Z,34.50
2018-02-13T15:23:50.711Z,34.70
2018-02-13T15:26:18.248Z,35.00
2018-02-13T15:28:46.595Z,35.30
2018-02-13T15:31:14.098Z,35.30
2018-02-13T15:33:42.519Z,35.90
2018-02-13T15:36:10.180Z,35.60
2018-02-13T15:38:38.463Z,36.20
2018-02-13T15:41:06.867Z,36.40
2018-02-13T15:43:34.393Z,36.40
2018-02-13T15:46:01.928Z,36.70
2018-02-13T15:48:29.510Z,37.00
2018-02-13T15:50:57.098Z,37.40
2018-02-13T15:53:24.668Z,37.70
2018-02-13T15:55:53.730Z,38.10
2018-02-13T15:58:22.064Z,38.30
2018-02-13T16:00:49.724Z,38.30
2018-02-13T16:03:17.305Z,39.00
2018-02-13T16:05:44.844Z,38.70
2018-02-13T16:08:12.440Z,38.50
2018-02-13T16:10:39.995Z,37.90
2018-02-13T16:13:07.525Z,37.90
2018-02-13T16:15:35.115Z,38.20
2018-02-13T16:18:03.400Z,38.80
2018-02-13T16:20:31.705Z,38.90
2018-02-13T16:22:59.385Z,38.90
2018-02-13T16:25:26.918Z,39.10
2018-02-13T16:27:54.454Z,39.30
2018-02-13T16:30:22.008Z,39.60
2018-02-13T16:32:49.566Z,39.90
2018-02-13T16:35:17.233Z,40.10
2018-02-13T16:37:44.750Z,40.30
2018-02-13T16:40:12.317Z,40.60
2018-02-13T16:42:39.848Z,40.90
2018-02-13T16:45:07.369Z,41.10
2018-02-13T16:47:35.662Z,41.20
2018-02-13T16:50:03.219Z,41.20
2018-02-13T16:52:30.769Z,41.30
2018-02-13T16:54:58.386Z,41.60
2018-02-13T16:57:26.011Z,41.90
2018-02-13T16:59:53.552Z,42.00
2018-02-13T17:02:21.893Z,42.40
2018-02-13T17:04:49.511Z,42.30
2018-02-13T17:07:17.870Z,42.90
2018-02-13T17:09:45.511Z,42.80
2018-02-13T17:12:13.033Z,43.20
2018-02-13T17:14:40.531Z,43.50
2018-02-13T17:17:08.096Z,43.80
2018-02-13T17:19:36.009Z,43.90
2018-02-13T17:22:03.555Z,43.90
2018-02-13T17:24:31.204Z,44.10
2018-02-13T17:26:59.720Z,44.40
2018-02-13T17:29:27.324Z,44.30
2018-02-13T17:31:54.954Z,44.30
2018-02-13T17:34:23.726Z,44.30
2018-02-13T17:36:50.958Z,44.20
2018-02-13T17:39:19.276Z,44.40
2018-02-13T17:41:46.942Z,44.50
2018-02-13T17:44:14.476Z,44.80
2018-02-13T17:46:42.092Z,44.90
2018-02-13T17:49:09.693Z,45.20
2018-02-13T17:51:39.343Z,45.10
2018-02-13T17:54:08.055Z,45.10
2018-02-13T17:56:38.049Z,45.10
2018-02-13T17:59:06.490Z,45.00
2018-02-13T18:01:34.066Z,44.90
2018-02-13T18:04:01.637Z,44.60
2018-02-13T18:06:29.278Z,44.70
2018-02-13T18:08:56.893Z,44.80
2018-02-13T18:11:24.523Z,44.70
2018-02-13T18:13:52.140Z,44.90
2018-02-13T18:16:19.737Z,45.00
2018-02-13T18:18:47.462Z,45.20
2018-02-13T18:21:15.021Z,45.20
2018-02-13T18:23:42.602Z,45.40
2018-02-13T18:26:10.191Z,45.60
2018-02-13T18:28:37.744Z,45.60
2018-02-13T18:31:05.284Z,45.70
2018-02-13T18:33:33.152Z,45.90
2018-02-13T18:36:03.559Z,46.00
2018-02-13T18:38:31.128Z,45.90
2018-02-13T18:40:58.656Z,46.20
2018-02-13T18:43:26.291Z,46.20
2018-02-13T18:45:54.320Z,46.30
2018-02-13T18:48:23.419Z,46.40
2018-02-13T18:50:50.992Z,46.60
2018-02-13T18:53:18.607Z,46.80
2018-02-13T18:55:46.138Z,47.00
2018-02-13T18:58:13.726Z,47.20
2018-02-13T19:00:46.774Z,47.10
2018-02-13T19:03:15.309Z,47.30
2018-02-13T19:05:42.843Z,47.20
2018-02-13T19:08:11.250Z,47.30
2018-02-13T19:10:38.788Z,47.70
2018-02-13T19:13:06.373Z,48.00
2018-02-13T19:15:33.916Z,48.30
2018-02-13T19:18:01.491Z,48.40
2018-02-13T19:20:29.056Z,48.10
2018-02-13T19:22:56.626Z,48.30
2018-02-13T19:25:24.409Z,48.40
2018-02-13T19:27:52.007Z,48.50
2018-02-13T19:30:19.758Z,48.60
2018-02-13T19:32:47.340Z,48.60
2018-02-13T19:35:15.157Z,48.60
2018-02-13T19:37:42.717Z,48.50
2018-02-13T19:40:11.083Z,48.90
2018-02-13T19:42:38.651Z,48.90
2018-02-13T19:45:07.143Z,49.00
2018-02-13T19:47:34.818Z,49.10
2018-02-13T19:50:02.405Z,49.30
2018-02-13T19:52:30.740Z,49.40
2018-02-13T19:54:58.362Z,49.30
2018-02-13T19:57:30.470Z,49.90
2018-02-13T19:59:58.190Z,49.50
2018-02-13T20:02:35.400Z,49.60
2018-02-13T20:05:03.850Z,49.70
2018-02-13T20:07:31.411Z,49.70
2018-02-13T20:12:58.381Z,49.90
2018-02-13T20:15:37.318Z,50.00
2018-02-13T20:18:08.865Z,50.20
2018-02-13T20:20:36.403Z,50.10
2018-02-13T20:23:05.014Z,50.30
2018-02-13T20:25:43.515Z,50.20
2018-02-13T20:31:28.516Z,50.30
2018-02-13T20:33:56.083Z,50.40
2018-02-13T20:36:24.890Z,50.70
2018-02-13T20:38:53.210Z,50.60
2018-02-13T20:41:20.865Z,50.70
2018-02-13T20:43:48.579Z,50.80
2018-02-13T20:46:16.507Z,50.70
2018-02-13T20:48:44.062Z,50.80
2018-02-13T20:51:12.477Z,51.20
2018-02-13T20:53:40.747Z,50.60
2018-02-13T20:56:12.771Z,50.70
2018-02-13T20:58:40.347Z,50.60
2018-02-13T21:01:08.050Z,50.70
2018-02-13T21:03:35.639Z,50.70
2018-02-13T21:06:03.330Z,50.60
2018-02-13T21:08:31.773Z,50.70
2018-02-13T21:10:59.551Z,50.90
2018-02-13T21:13:27.150Z,51.00
2018-02-13T21:15:54.944Z,51.10
2018-02-13T21:18:22.517Z,51.20
2018-02-13T21:20:51.060Z,51.60
2018-02-13T21:23:18.655Z,51.60
2018-02-13T21:25:46.232Z,51.70
2018-02-13T21:28:13.842Z,51.80
2018-02-13T21:30:42.158Z,52.00
2018-02-13T21:33:09.794Z,51.90
2018-02-13T21:35:37.916Z,51.90
2018-02-13T21:38:05.677Z,52.00
2018-02-13T21:40:33.247Z,51.70
2018-02-13T21:43:01.577Z,67.00
2018-02-13T21:45:29.083Z,66.90
2018-02-13T21:47:56.666Z,59.20
2018-02-13T21:50:24.944Z,54.30
2018-02-13T21:52:53.311Z,51.80
2018-02-13T21:55:21.079Z,51.50
2018-02-13T21:57:48.626Z,47.20
2018-02-13T22:00:16.214Z,47.70
2018-02-13T22:02:43.865Z,47.70
2018-02-13T22:05:11.507Z,48.60
2018-02-13T22:07:39.983Z,49.70
2018-02-13T22:10:07.602Z,49.70
2018-02-13T22:12:35.236Z,50.20
2018-02-13T22:15:02.980Z,50.50
2018-02-13T22:17:30.547Z,50.90
2018-02-13T22:19:58.085Z,51.30
2018-02-13T22:22:25.633Z,51.50
2018-02-13T22:24:53.350Z,51.60
2018-02-13T22:27:20.934Z,52.40
2018-02-13T22:29:48.444Z,52.60
2018-02-13T22:32:16.052Z,52.10
2018-02-13T22:34:43.641Z,52.20
2018-02-13T22:37:11.232Z,52.30
2018-02-13T22:39:38.826Z,52.40
2018-02-13T22:42:06.387Z,52.40
2018-02-13T22:44:33.933Z,52.50
2018-02-13T22:47:01.604Z,52.50
2018-02-13T22:49:29.130Z,52.80
2018-02-13T22:51:57.397Z,52.90
2018-02-13T22:54:24.931Z,52.90
2018-02-13T22:56:57.429Z,53.20
2018-02-13T22:59:24.965Z,53.30
2018-02-13T23:01:52.470Z,53.50
2018-02-13T23:04:20.001Z,53.60
2018-02-13T23:06:47.552Z,53.70
2018-02-13T23:09:15.838Z,53.70
2018-02-13T23:11:44.173Z,53.90
2018-02-13T23:14:11.735Z,53.70
2018-02-13T23:16:39.394Z,53.90
2018-02-13T23:19:07.689Z,54.00
2018-02-13T23:21:35.199Z,53.90
2018-02-13T23:24:02.740Z,54.10
2018-02-13T23:26:30.273Z,54.10
2018-02-13T23:28:58.356Z,54.20
2018-02-13T23:31:26.707Z,54.40
2018-02-13T23:33:54.231Z,54.40
2018-02-13T23:36:22.516Z,54.50
2018-02-13T23:38:51.002Z,54.70
2018-02-13T23:41:20.234Z,54.70
2018-02-13T23:43:48.507Z,54.90
2018-02-13T23:46:16.853Z,55.00
2018-02-13T23:48:44.974Z,55.00
2018-02-13T23:51:13.271Z,55.10
2018-02-13T23:53:41.662Z,55.30
2018-02-13T23:56:09.935Z,55.30
2018-02-13T23:58:37.460Z,55.30
